Capshaw, Alabama
Current Conditions -  °F | °C
As of 3:53 PM on Thursday 18 Dec 2014 (Local Time) from KHSV Reporting Station
Overcast Overcast  
Wind Chill: 46°   Ceiling: 4600
Heat Index: 46°   Visibility: 10mi
Dew Point: 34°   Wind: 3mph
Humidity: 63%   Direction: 330°NNW
Pressure: 30.17"   Gusts: NA
Location:  34.77°N, 86.79°W
Report Text: KHSV 182153Z 33003KT 10SM OVC046 08/01 A3017 RMK AO2 SLP217 T00780011
Loading
Personal Weather Stations






























Interactive Weather Map New forecast layout! Learn more

10-Day Weather Forecast

Advertisements
Track Severe Weather on mobile